Time;durP1;ratioP1;P1;durP2;ratioP2;P2;SDS_P1;SDS_P2;PMS_P1;PMS_P2;Temp;Humidity;BMP_temperature;BMP_pressure;BME280_temperature;BME280_humidity;BME280_pressure;Samples;Min_cycle;Max_cycle;Signal;HPM_P1;HPM_P2
2023/06/18 00:02:40;;;;;;;10.60;9.60;;;;;;;14.14;78.46;99485.83;216763;1263;139750;-66
2023/06/18 00:07:42;;;;;;;12.60;10.50;;;;;;;14.10;78.41;99481.58;219318;1262;139495;-66
2023/06/18 00:12:46;;;;;;;10.00;9.00;;;;;;;14.06;78.29;99481.73;219773;1262;141158;-65
2023/06/18 00:17:51;;;;;;;14.20;12.70;;;;;;;13.97;78.35;99485.30;219694;1262;139894;-66
2023/06/18 00:22:54;;;;;;;14.00;12.70;;;;;;;13.97;79.09;99493.35;217604;1264;139460;-66
2023/06/18 00:27:57;;;;;;;14.80;13.30;;;;;;;13.99;79.15;99497.43;219109;1262;142254;-63
2023/06/18 00:33:00;;;;;;;14.10;12.60;;;;;;;14.01;79.51;99494.77;219985;1260;140054;-65
2023/06/18 00:38:04;;;;;;;14.30;12.90;;;;;;;14.04;79.62;99493.23;216756;1264;141402;-64
2023/06/18 00:43:08;;;;;;;11.20;10.00;;;;;;;14.03;79.45;99487.48;218416;1262;140935;-63
2023/06/18 00:48:13;;;;;;;15.70;11.60;;;;;;;14.01;79.59;99493.05;218212;1260;139816;-64
2023/06/18 00:53:17;;;;;;;14.40;12.90;;;;;;;13.96;79.34;99495.92;217167;1260;139490;-63
2023/06/18 00:58:23;;;;;;;11.20;10.10;;;;;;;13.90;79.65;99493.95;217832;1260;139800;-63
2023/06/18 01:03:28;;;;;;;13.10;11.90;;;;;;;13.87;79.64;99494.31;216975;1260;140323;-64
2023/06/18 01:08:33;;;;;;;13.10;10.60;;;;;;;13.79;79.67;99504.83;218047;1260;139516;-67
2023/06/18 01:13:40;;;;;;;12.70;10.90;;;;;;;13.72;79.43;99503.16;217064;1260;139413;-65
2023/06/18 01:18:46;;;;;;;10.30;8.40;;;;;;;13.62;79.26;99503.69;217095;1264;139625;-64
2023/06/18 01:24:16;;;;;;;16.20;10.00;;;;;;;13.51;79.00;99507.75;217183;1260;140173;-64
2023/06/18 01:29:19;;;;;;;12.50;9.80;;;;;;;13.36;78.73;99514.48;217699;1262;139828;-64
2023/06/18 01:34:24;;;;;;;12.00;10.30;;;;;;;13.19;78.97;99517.50;217093;1261;140416;-64
2023/06/18 01:39:54;;;;;;;12.00;10.70;;;;;;;13.10;78.99;99525.77;217413;1260;140701;-65
2023/06/18 01:45:15;;;;;;;12.20;10.60;;;;;;;13.03;79.20;99530.91;217584;1260;140615;-66
2023/06/18 01:50:21;;;;;;;11.20;10.00;;;;;;;12.98;79.38;99535.62;217219;1260;141122;-67
2023/06/18 01:55:28;;;;;;;12.00;10.90;;;;;;;12.90;79.13;99536.34;217662;1260;141068;-66
2023/06/18 02:00:32;;;;;;;11.20;10.10;;;;;;;12.80;79.12;99539.96;217175;1260;140532;-67
2023/06/18 02:05:36;;;;;;;11.80;10.70;;;;;;;12.68;78.97;99540.38;218090;1260;139765;-68
2023/06/18 02:10:39;;;;;;;10.20;7.50;;;;;;;12.61;79.31;99546.93;217695;1260;139719;-67
2023/06/18 02:15:43;;;;;;;9.40;8.60;;;;;;;12.50;79.43;99542.98;218696;1260;139307;-67
2023/06/18 02:20:46;;;;;;;14.50;10.20;;;;;;;12.48;79.41;99543.35;219984;1260;140884;-68
2023/06/18 02:25:50;;;;;;;14.00;10.20;;;;;;;12.45;79.52;99555.77;220449;1256;139868;-67
2023/06/18 02:30:55;;;;;;;8.20;7.40;;;;;;;12.40;79.28;99551.05;219860;1256;140266;-66
2023/06/18 02:35:59;;;;;;;9.50;7.50;;;;;;;12.32;79.35;99554.02;220360;1256;139991;-67
2023/06/18 02:41:02;;;;;;;7.90;7.30;;;;;;;12.23;79.27;99548.79;219881;1256;139403;-66
2023/06/18 02:46:06;;;;;;;10.90;9.80;;;;;;;12.16;79.62;99548.92;219876;1256;140530;-67
2023/06/18 02:51:08;;;;;;;11.90;10.80;;;;;;;12.13;79.93;99552.00;218050;1256;139722;-66
2023/06/18 02:56:12;;;;;;;9.70;8.80;;;;;;;12.13;79.64;99553.80;217824;1257;140888;-66
2023/06/18 03:01:19;;;;;;;9.10;8.20;;;;;;;12.09;79.86;99558.78;218270;1257;140376;-66
2023/06/18 03:06:23;;;;;;;11.70;10.30;;;;;;;12.01;79.61;99570.20;217860;1256;139613;-66
2023/06/18 03:11:27;;;;;;;14.20;9.50;;;;;;;11.97;80.18;99567.32;218086;1256;139953;-66
2023/06/18 03:16:32;;;;;;;10.10;9.10;;;;;;;11.98;80.30;99563.23;217888;1256;139541;-65
2023/06/18 03:21:37;;;;;;;11.10;10.00;;;;;;;11.98;80.60;99562.90;218876;1256;140047;-66
2023/06/18 03:26:41;;;;;;;11.00;9.90;;;;;;;12.05;80.62;99565.98;218144;1256;141070;-69
2023/06/18 03:31:46;;;;;;;12.40;10.00;;;;;;;12.17;81.08;99565.71;217715;1257;139907;-69
2023/06/18 03:36:50;;;;;;;11.80;10.70;;;;;;;12.25;80.89;99562.26;217709;1256;139892;-70
2023/06/18 03:41:54;;;;;;;12.80;11.00;;;;;;;12.36;81.61;99568.19;218442;1256;140597;-67
2023/06/18 03:46:57;;;;;;;11.80;10.70;;;;;;;12.50;81.48;99570.00;218502;1256;139825;-65
2023/06/18 03:52:00;;;;;;;11.40;10.40;;;;;;;12.58;81.53;99573.86;218786;1257;140119;-66
2023/06/18 03:57:04;;;;;;;10.00;8.90;;;;;;;12.67;81.80;99569.79;218478;1257;141622;-64
2023/06/18 04:02:08;;;;;;;9.10;8.20;;;;;;;12.86;82.00;99573.14;217904;1256;139926;-65
2023/06/18 04:07:11;;;;;;;10.80;9.70;;;;;;;13.02;81.57;99571.35;220230;1256;139484;-66
2023/06/18 04:12:13;;;;;;;10.50;9.50;;;;;;;13.10;81.69;99567.48;219736;1256;139375;-66
2023/06/18 04:17:17;;;;;;;17.40;11.20;;;;;;;13.18;81.84;99562.77;220542;1256;139680;-67
2023/06/18 04:22:20;;;;;;;14.40;12.50;;;;;;;13.27;82.26;99566.76;220461;1256;142014;-67
2023/06/18 04:27:23;;;;;;;11.90;9.40;;;;;;;13.51;82.75;99572.77;219091;1256;140113;-66
2023/06/18 04:32:26;;;;;;;12.20;11.10;;;;;;;13.73;82.51;99570.13;219211;1256;140149;-65
2023/06/18 04:37:31;;;;;;;13.60;11.70;;;;;;;14.00;83.09;99581.58;218666;1257;139744;-67
2023/06/18 04:42:36;;;;;;;16.50;14.70;;;;;;;14.36;83.08;99580.77;217985;1256;140829;-66
2023/06/18 04:47:40;;;;;;;16.90;14.90;;;;;;;14.69;83.04;99584.00;219065;1257;139806;-65
2023/06/18 04:52:44;;;;;;;16.20;14.00;;;;;;;14.93;82.56;99583.30;218823;1256;140678;-65
2023/06/18 04:57:47;;;;;;;17.20;14.20;;;;;;;15.09;82.45;99592.64;217901;1256;139848;-66
2023/06/18 05:02:52;;;;;;;16.00;13.90;;;;;;;15.24;82.06;99596.58;219167;1256;139820;-66
2023/06/18 05:07:56;;;;;;;20.40;18.00;;;;;;;15.38;81.79;99609.13;217812;1259;140695;-65
2023/06/18 05:12:59;;;;;;;21.40;15.30;;;;;;;15.45;81.45;99624.02;218514;1256;140814;-63
2023/06/18 05:18:02;;;;;;;17.50;15.30;;;;;;;15.70;81.08;99628.11;217846;1257;141072;-67
2023/06/18 05:23:05;;;;;;;19.00;16.40;;;;;;;15.93;80.29;99626.40;217636;1257;140312;-67
2023/06/18 05:28:07;;;;;;;23.20;17.20;;;;;;;16.36;79.43;99629.55;217758;1257;139899;-66
2023/06/18 05:33:10;;;;;;;18.70;13.90;;;;;;;17.31;78.64;99635.16;219218;1256;140240;-68
2023/06/18 05:38:13;;;;;;;18.50;16.70;;;;;;;18.71;77.27;99629.14;217812;1256;140373;-68
2023/06/18 05:43:16;;;;;;;18.90;17.00;;;;;;;20.54;74.53;99636.27;217678;1256;139560;-64
2023/06/18 05:48:20;;;;;;;19.20;17.30;;;;;;;22.20;70.54;99634.38;218346;1257;141736;-65
2023/06/18 05:53:22;;;;;;;18.50;16.70;;;;;;;23.84;67.89;99637.79;218884;1256;139919;-65
2023/06/18 05:58:24;;;;;;;17.60;15.90;;;;;;;25.50;66.47;99643.71;218956;1256;140171;-63
2023/06/18 06:03:27;;;;;;;19.30;16.70;;;;;;;27.12;63.47;99647.99;220416;1256;139850;-64
2023/06/18 06:08:30;;;;;;;17.80;16.10;;;;;;;27.79;60.32;99655.45;218306;1257;140356;-64
2023/06/18 06:13:34;;;;;;;17.50;15.70;;;;;;;28.46;57.65;99664.38;220250;1256;151372;-65
2023/06/18 06:18:37;;;;;;;15.20;13.90;;;;;;;29.20;56.30;99666.04;220337;1257;140896;-67
2023/06/18 06:23:40;;;;;;;14.80;13.40;;;;;;;30.03;54.64;99674.58;219942;1256;139330;-68
2023/06/18 06:28:43;;;;;;;14.80;13.40;;;;;;;29.39;53.40;99674.59;218235;1256;235526;-68
2023/06/18 06:33:47;;;;;;;14.70;13.40;;;;;;;28.83;53.32;99677.45;218941;1257;139494;-66
2023/06/18 06:38:53;;;;;;;14.60;13.20;;;;;;;28.01;52.49;99675.59;218852;1256;140166;-66
2023/06/18 06:43:57;;;;;;;16.60;14.90;;;;;;;27.92;53.15;99673.17;217905;1256;140241;-63
2023/06/18 06:49:00;;;;;;;13.60;12.40;;;;;;;28.03;53.18;99674.81;218224;1257;139504;-65
2023/06/18 06:54:04;;;;;;;15.10;13.20;;;;;;;27.99;52.38;99676.17;217628;1257;139601;-66
2023/06/18 06:59:08;;;;;;;14.30;13.00;;;;;;;27.26;52.62;99673.29;218621;1256;139481;-64
2023/06/18 07:04:11;;;;;;;16.30;14.70;;;;;;;26.47;52.67;99672.75;217805;1257;140136;-64
2023/06/18 07:09:14;;;;;;;15.80;14.50;;;;;;;26.28;53.88;99676.03;218061;1256;140193;-64
2023/06/18 07:14:17;;;;;;;17.40;15.50;;;;;;;26.11;53.57;99671.02;217531;1257;139765;-64
2023/06/18 07:19:21;;;;;;;18.40;16.70;;;;;;;25.68;54.24;99669.45;218145;1256;140032;-63
2023/06/18 07:24:24;;;;;;;17.70;15.90;;;;;;;25.51;54.97;99673.38;217702;1260;139775;-63
2023/06/18 07:29:27;;;;;;;14.90;13.70;;;;;;;25.39;55.91;99677.89;217928;1260;140306;-64
2023/06/18 07:34:30;;;;;;;14.70;13.40;;;;;;;25.11;55.81;99678.44;218130;1260;139490;-62
2023/06/18 07:39:33;;;;;;;14.30;13.00;;;;;;;24.81;55.98;99682.18;217838;1257;139325;-61
2023/06/18 07:44:37;;;;;;;14.70;13.40;;;;;;;24.52;56.00;99678.46;218204;1256;139965;-63
2023/06/18 07:49:40;;;;;;;17.70;15.90;;;;;;;24.38;56.79;99675.66;219576;1256;140019;-62
2023/06/18 07:54:43;;;;;;;14.50;13.10;;;;;;;24.57;57.55;99682.49;217979;1257;139744;-62
2023/06/18 07:59:48;;;;;;;14.30;13.00;;;;;;;24.85;57.44;99678.50;218925;1257;142112;-61
2023/06/18 08:04:52;;;;;;;13.60;12.40;;;;;;;25.21;57.27;99679.05;217810;1256;139441;-60
2023/06/18 08:09:56;;;;;;;13.80;12.20;;;;;;;25.69;57.42;99680.73;217623;1258;139161;-61
2023/06/18 08:14:58;;;;;;;11.50;10.30;;;;;;;26.05;56.43;99686.29;220262;1256;140258;-63
2023/06/18 08:20:01;;;;;;;10.20;9.30;;;;;;;25.60;55.03;99688.36;220403;1256;139865;-63
2023/06/18 08:25:06;;;;;;;9.90;9.20;;;;;;;25.15;54.35;99689.49;220458;1256;138857;-62
2023/06/18 08:30:10;;;;;;;10.30;9.40;;;;;;;25.37;55.86;99693.73;217956;1257;140045;-65
2023/06/18 08:35:13;;;;;;;8.30;7.60;;;;;;;25.63;55.60;99694.65;219982;1256;140117;-65
2023/06/18 08:40:17;;;;;;;10.80;9.50;;;;;;;25.59;55.62;99700.74;219038;1257;140423;-65
2023/06/18 08:45:24;;;;;;;10.00;8.60;;;;;;;26.17;55.54;99697.30;217943;1257;139369;-66
2023/06/18 08:50:28;;;;;;;9.50;8.80;;;;;;;26.72;54.04;99692.23;217508;1260;139243;-66
2023/06/18 08:55:32;;;;;;;23.90;8.90;;;;;;;27.11;53.68;99688.90;217581;1257;822989;-65
2023/06/18 09:00:37;;;;;;;9.00;8.20;;;;;;;27.28;52.00;99684.77;217460;1256;140825;-63
2023/06/18 09:05:40;;;;;;;7.70;5.80;;;;;;;27.38;51.61;99684.36;217488;1257;139972;-63
2023/06/18 09:10:43;;;;;;;7.40;6.50;;;;;;;27.42;51.12;99679.48;217578;1257;138872;-62
2023/06/18 09:15:49;;;;;;;8.80;8.00;;;;;;;27.65;51.02;99675.51;218745;1257;139166;-64
2023/06/18 09:20:53;;;;;;;8.90;8.20;;;;;;;27.75;50.39;99669.01;217967;1257;139374;-63
2023/06/18 09:25:58;;;;;;;19.10;6.70;;;;;;;27.71;49.74;99667.73;218229;1257;138756;-63
2023/06/18 09:31:03;;;;;;;6.50;6.10;;;;;;;27.79;49.36;99659.25;218072;1257;139559;-63
2023/06/18 09:36:07;;;;;;;7.40;6.70;;;;;;;27.78;48.98;99656.40;217921;1257;139163;-65
2023/06/18 09:41:16;;;;;;;10.80;5.90;;;;;;;27.81;48.46;99657.90;217392;1256;139094;-66
2023/06/18 09:46:22;;;;;;;5.20;4.80;;;;;;;27.89;48.71;99657.20;217696;1256;140550;-67
2023/06/18 09:51:28;;;;;;;6.80;6.30;;;;;;;27.85;47.67;99654.29;217647;1260;138634;-67
2023/06/18 09:57:02;;;;;;;7.60;6.90;;;;;;;27.88;47.88;99652.42;218549;1260;245795;-66
2023/06/18 10:02:26;;;;;;;6.80;6.10;;;;;;;27.91;46.90;99647.23;217521;1260;140311;-65
2023/06/18 10:07:31;;;;;;;6.50;5.90;;;;;;;27.92;47.02;99641.95;218616;1261;139795;-64
2023/06/18 10:12:53;;;;;;;8.00;6.50;;;;;;;27.47;46.57;99638.32;220429;1256;139497;-68
2023/06/18 10:17:57;;;;;;;6.00;5.60;;;;;;;26.75;46.49;99643.55;218224;1257;140217;-67
2023/06/18 10:23:06;;;;;;;7.50;6.80;;;;;;;27.06;47.80;99638.56;220486;1257;139948;-66
2023/06/18 10:28:10;;;;;;;33.20;12.80;;;;;;;27.58;48.30;99633.70;220523;1257;138899;-66
2023/06/18 10:33:12;;;;;;;12.30;11.30;;;;;;;27.90;48.58;99637.11;218319;1260;139681;-65
2023/06/18 10:38:15;;;;;;;14.20;12.80;;;;;;;28.09;48.21;99640.37;219162;1256;138865;-66
2023/06/18 10:43:24;;;;;;;13.10;12.10;;;;;;;28.46;48.60;99644.95;218458;1260;139651;-65
2023/06/18 10:48:28;;;;;;;13.00;12.00;;;;;;;28.74;48.31;99642.30;218289;1258;139085;-66
2023/06/18 10:53:30;;;;;;;12.60;11.70;;;;;;;28.83;47.84;99647.75;218394;1260;139239;-66
2023/06/18 10:58:37;;;;;;;12.50;11.50;;;;;;;28.74;47.65;99651.40;218302;1257;139292;-66
2023/06/18 11:03:41;;;;;;;13.00;11.80;;;;;;;28.47;47.51;99656.55;218691;1260;140705;-66
2023/06/18 11:08:44;;;;;;;16.20;14.80;;;;;;;27.48;47.44;99660.62;217807;1257;139544;-66
2023/06/18 11:13:53;;;;;;;14.00;12.70;;;;;;;26.24;48.49;99658.89;217709;1260;139712;-66
2023/06/18 11:19:02;;;;;;;14.60;13.10;;;;;;;25.45;49.49;99660.66;217665;1261;139279;-65
2023/06/18 11:24:10;;;;;;;14.20;13.00;;;;;;;24.70;50.47;99658.16;218476;1260;139027;-66
2023/06/18 11:29:14;;;;;;;15.50;13.30;;;;;;;24.07;51.44;99644.45;217750;1257;138699;-66
2023/06/18 11:34:17;;;;;;;14.30;13.00;;;;;;;23.73;52.60;99643.13;218706;1256;139441;-65
2023/06/18 11:39:24;;;;;;;12.20;11.30;;;;;;;23.58;53.73;99634.98;217764;1256;139352;-66
2023/06/18 11:44:28;;;;;;;15.00;13.70;;;;;;;23.43;54.24;99631.63;219030;1260;139952;-66
2023/06/18 11:49:43;;;;;;;16.30;14.90;;;;;;;23.34;55.31;99633.55;218653;1258;223215;-66
2023/06/18 11:54:51;;;;;;;15.00;13.80;;;;;;;23.32;56.40;99633.61;217713;1257;139464;-66
2023/06/18 11:59:54;;;;;;;17.50;15.90;;;;;;;23.23;57.39;99636.39;218841;1257;139718;-66
2023/06/18 12:05:06;;;;;;;16.30;14.90;;;;;;;23.43;58.22;99639.54;218917;1257;139716;-66
2023/06/18 12:10:14;;;;;;;18.40;16.80;;;;;;;23.60;58.93;99636.65;219492;1257;139428;-66
2023/06/18 12:15:40;;;;;;;15.60;14.10;;;;;;;23.75;59.14;99634.05;220438;1256;141201;-66
2023/06/18 12:20:43;;;;;;;15.20;14.00;;;;;;;24.18;59.45;99636.54;220347;1257;140645;-66
2023/06/18 12:25:46;;;;;;;15.00;13.50;;;;;;;24.54;58.60;99643.41;220499;1257;141158;-66
2023/06/18 12:30:51;;;;;;;13.80;12.60;;;;;;;25.05;58.35;99637.91;218933;1257;140230;-66
2023/06/18 12:35:58;;;;;;;13.30;12.10;;;;;;;25.99;57.34;99630.02;218591;1260;139041;-66
2023/06/18 12:41:23;;;;;;;7.90;7.30;;;;;;;26.62;55.22;99621.30;218895;1258;139327;-66
2023/06/18 12:46:28;;;;;;;7.90;6.30;;;;;;;26.97;52.63;99614.59;218023;1258;138958;-65
2023/06/18 12:51:44;;;;;;;7.60;7.00;;;;;;;27.23;51.01;99608.56;218683;1257;139179;-66
2023/06/18 12:56:55;;;;;;;6.90;6.30;;;;;;;27.72;50.21;99602.46;217548;1257;139058;-65
2023/06/18 13:02:00;;;;;;;7.70;7.00;;;;;;;27.97;48.57;99596.36;217733;1257;139284;-66
2023/06/18 13:07:03;;;;;;;7.10;6.50;;;;;;;28.14;46.94;99590.35;218140;1256;139298;-66
2023/06/18 13:12:06;;;;;;;7.20;6.70;;;;;;;28.02;46.50;99593.05;217709;1257;138966;-66
2023/06/18 13:17:09;;;;;;;9.10;8.30;;;;;;;28.02;47.03;99601.67;218098;1260;139459;-66
2023/06/18 13:22:12;;;;;;;7.80;7.20;;;;;;;27.59;46.60;99600.01;217748;1260;138700;-66
2023/06/18 13:27:15;;;;;;;10.00;9.30;;;;;;;27.17;46.73;99603.86;218083;1260;140984;-67
2023/06/18 13:32:18;;;;;;;10.60;9.70;;;;;;;26.61;47.21;99610.95;218145;1257;139074;-67
2023/06/18 13:37:20;;;;;;;8.40;7.70;;;;;;;26.27;48.27;99612.21;218100;1257;138906;-67
2023/06/18 13:42:22;;;;;;;8.40;7.80;;;;;;;26.20;48.08;99613.31;218410;1257;138302;-67
2023/06/18 13:47:26;;;;;;;8.40;7.70;;;;;;;26.23;47.94;99611.63;218095;1258;139766;-67
2023/06/18 13:52:31;;;;;;;6.80;6.20;;;;;;;26.09;47.54;99610.09;218378;1260;138521;-66
2023/06/18 13:57:34;;;;;;;6.80;6.20;;;;;;;25.74;47.30;99606.50;219230;1257;139300;-67
2023/06/18 20:30:18;;;;;;;10.00;9.00;;;;;;;15.81;76.10;99758.72;214831;1297;657680;-68
2023/06/18 20:35:26;;;;;;;9.50;8.60;;;;;;;15.59;76.18;99753.64;218191;1262;140399;-67
2023/06/18 20:40:37;;;;;;;10.00;9.10;;;;;;;15.44;76.53;99753.64;217164;1257;655778;-67
2023/06/18 20:45:46;;;;;;;18.00;13.00;;;;;;;15.32;76.80;99755.66;217223;1262;139834;-67
2023/06/18 20:51:02;;;;;;;25.80;19.90;;;;;;;15.26;77.22;99758.34;217993;1259;139794;-65
2023/06/18 20:56:09;;;;;;;34.70;24.50;;;;;;;15.22;77.63;99756.34;217339;1262;140922;-66
2023/06/18 21:01:13;;;;;;;16.50;14.70;;;;;;;15.13;77.41;99752.23;218564;1260;141838;-67
2023/06/18 21:06:21;;;;;;;12.20;11.00;;;;;;;14.96;77.19;99751.48;217448;1260;139537;-66
2023/06/18 21:11:28;;;;;;;9.70;8.90;;;;;;;14.76;77.33;99752.30;217824;1260;139364;-67
2023/06/18 21:16:35;;;;;;;9.20;8.40;;;;;;;14.59;77.46;99750.14;218185;1260;139238;-64
2023/06/18 21:21:40;;;;;;;11.40;10.20;;;;;;;14.48;77.91;99748.45;217669;1260;139937;-67
2023/06/18 21:26:45;;;;;;;14.50;13.00;;;;;;;14.44;78.27;99753.85;217808;1260;139609;-66
2023/06/18 21:31:49;;;;;;;10.90;9.80;;;;;;;14.46;78.79;99754.88;217558;1260;139576;-66
2023/06/18 21:36:57;;;;;;;12.90;11.60;;;;;;;14.37;78.29;99762.42;216917;1259;140465;-66
2023/06/18 21:42:02;;;;;;;19.70;11.70;;;;;;;14.29;78.51;99766.88;217661;1260;139897;-65
2023/06/18 21:47:08;;;;;;;11.50;9.30;;;;;;;14.22;78.37;99768.70;217156;1260;140696;-64
2023/06/18 21:52:12;;;;;;;9.00;8.10;;;;;;;14.08;78.72;99767.36;219629;1260;139320;-64
2023/06/18 21:57:17;;;;;;;7.60;6.20;;;;;;;13.96;78.52;99774.61;219448;1259;139126;-66
2023/06/18 22:02:22;;;;;;;13.70;9.40;;;;;;;13.89;78.81;99767.42;219670;1262;139779;-65
2023/06/18 22:07:27;;;;;;;10.40;9.40;;;;;;;13.89;79.13;99773.27;218526;1259;139846;-66
2023/06/18 22:12:32;;;;;;;14.80;10.20;;;;;;;13.94;79.46;99773.31;219367;1262;139623;-67
2023/06/18 22:17:37;;;;;;;10.00;9.00;;;;;;;14.00;79.82;99776.16;219260;1259;139767;-65
2023/06/18 22:22:41;;;;;;;12.70;9.90;;;;;;;13.94;79.34;99775.62;218471;1260;140348;-68
2023/06/18 22:27:47;;;;;;;25.00;11.10;;;;;;;13.89;79.31;99773.64;218737;1260;139950;-68
2023/06/18 22:32:53;;;;;;;10.50;9.00;;;;;;;13.84;79.36;99773.65;218161;1260;140042;-69
2023/06/18 22:38:01;;;;;;;10.50;9.50;;;;;;;13.77;79.21;99772.30;219094;1262;139945;-66
2023/06/18 22:43:06;;;;;;;10.60;9.50;;;;;;;13.71;79.61;99773.61;218090;1260;139532;-67
2023/06/18 22:48:12;;;;;;;8.90;8.00;;;;;;;13.65;79.45;99770.16;217876;1260;139984;-69
2023/06/18 22:53:17;;;;;;;12.00;9.60;;;;;;;13.52;79.32;99771.32;217085;1262;139504;-66
2023/06/18 22:58:21;;;;;;;9.60;8.70;;;;;;;13.41;79.36;99766.67;217589;1260;144121;-65
2023/06/18 23:03:25;;;;;;;15.20;9.00;;;;;;;13.29;79.43;99767.08;217155;1260;139545;-64
2023/06/18 23:08:30;;;;;;;11.60;10.40;;;;;;;13.22;79.60;99764.37;217603;1260;140040;-65
2023/06/18 23:13:34;;;;;;;16.70;11.00;;;;;;;13.20;79.87;99765.58;217546;1260;139707;-65
2023/06/18 23:18:40;;;;;;;13.30;11.30;;;;;;;13.16;80.16;99765.32;218432;1259;140852;-65
2023/06/18 23:23:46;;;;;;;14.80;10.80;;;;;;;13.11;80.08;99765.67;217575;1260;140663;-64
2023/06/18 23:28:51;;;;;;;12.60;9.50;;;;;;;13.01;79.95;99766.89;217181;1260;140067;-67
2023/06/18 23:33:56;;;;;;;10.30;9.40;;;;;;;12.89;79.83;99761.77;217430;1261;140551;-66
2023/06/18 23:39:02;;;;;;;12.60;9.00;;;;;;;12.78;80.20;99760.58;217002;1260;140779;-65
2023/06/18 23:44:07;;;;;;;16.50;10.80;;;;;;;12.70;80.45;99760.30;218585;1260;140760;-66
2023/06/18 23:49:12;;;;;;;10.30;8.30;;;;;;;12.65;80.61;99759.53;217742;1259;139878;-65
2023/06/18 23:54:17;;;;;;;10.60;9.50;;;;;;;12.57;80.69;99759.10;217364;1259;139466;-65
2023/06/18 23:59:22;;;;;;;14.70;9.90;;;;;;;12.55;80.73;99758.80;218170;1259;139709;-65
